createdAt,value
2023-05-24T00:02:16.581Z,99890.81
2023-05-24T00:04:45.281Z,99887.19
2023-05-24T00:07:12.716Z,99889.06
2023-05-24T00:09:39.786Z,99880.19
2023-05-24T00:12:07.019Z,99885.53
2023-05-24T00:14:34.381Z,99884.72
2023-05-24T00:17:01.581Z,99880.09
2023-05-24T00:19:29.297Z,99887.38
2023-05-24T00:21:56.605Z,99877.47
2023-05-24T00:24:23.667Z,99882.88
2023-05-24T00:26:51.253Z,99878.53
2023-05-24T00:29:18.342Z,99876.78
2023-05-24T00:31:45.414Z,99870.44
2023-05-24T00:34:12.469Z,99875.81
2023-05-24T00:36:39.517Z,99869.47
2023-05-24T00:39:06.563Z,99866.88
2023-05-24T00:41:33.831Z,99872.19
2023-05-24T00:44:00.918Z,99866.97
2023-05-24T00:46:32.432Z,99861.69
2023-05-24T00:49:01.494Z,99872.28
2023-05-24T00:51:28.757Z,99868.66
2023-05-24T00:53:56.485Z,99874.03
2023-05-24T00:56:23.825Z,99874.03
2023-05-24T00:58:54.846Z,99865.06
2023-05-24T01:01:26.186Z,99865.22
2023-05-24T01:03:54.528Z,99863.34
2023-05-24T01:06:23.621Z,99860.72
2023-05-24T01:09:06.786Z,99865.22
2023-05-24T01:12:02.500Z,99864.28
2023-05-24T01:15:13.565Z,99864.38
2023-05-24T01:18:17.257Z,99867.88
2023-05-24T01:20:46.428Z,99868.00
2023-05-24T01:23:48.315Z,99868.91
2023-05-24T01:27:04.783Z,99875.16
2023-05-24T01:29:33.869Z,99875.13
2023-05-24T01:32:02.401Z,99877.75
2023-05-24T01:34:29.575Z,99877.75
2023-05-24T01:36:56.842Z,99862.69
2023-05-24T01:39:28.427Z,99877.72
2023-05-24T01:42:21.638Z,99876.00
2023-05-24T01:45:14.365Z,99881.38
2023-05-24T01:48:24.692Z,99876.03
2023-05-24T01:51:00.268Z,99878.69
2023-05-24T01:53:39.488Z,99878.69
2023-05-24T01:56:07.687Z,99885.84
2023-05-24T01:58:36.749Z,99881.44
2023-05-24T02:01:03.850Z,99877.84
2023-05-24T02:03:32.177Z,99884.97
2023-05-24T02:05:59.261Z,99884.13
2023-05-24T02:08:26.431Z,99891.25
2023-05-24T02:10:53.528Z,99888.63
2023-05-24T02:13:20.987Z,99880.66
2023-05-24T02:15:48.120Z,99883.28
2023-05-24T02:18:18.627Z,99881.53
2023-05-24T02:20:46.084Z,99882.41
2023-05-24T02:23:13.365Z,99880.56
2023-05-24T02:25:40.452Z,99882.38
2023-05-24T02:28:07.486Z,99887.75
2023-05-24T02:30:34.531Z,99887.81
2023-05-24T02:33:02.162Z,99886.00
2023-05-24T02:35:29.331Z,99894.00
2023-05-24T02:37:58.791Z,99890.50
2023-05-24T02:40:26.334Z,99884.22
2023-05-24T02:42:53.436Z,99896.66
2023-05-24T02:45:20.633Z,99884.28
2023-05-24T02:47:47.749Z,99886.06
2023-05-24T02:50:14.841Z,99887.84
2023-05-24T02:52:42.048Z,99886.06
2023-05-24T02:55:09.687Z,99882.44
2023-05-24T02:57:38.402Z,99883.34
2023-05-24T03:00:09.622Z,99877.13
2023-05-24T03:02:38.865Z,99892.28
2023-05-24T03:05:06.836Z,99886.94
2023-05-24T03:07:34.028Z,99887.00
2023-05-24T03:10:01.144Z,99892.31
2023-05-24T03:12:28.187Z,99884.28
2023-05-24T03:14:55.248Z,99894.94
2023-05-24T03:17:22.326Z,99896.72
2023-05-24T03:19:49.408Z,99889.63
2023-05-24T03:22:16.502Z,99898.53
2023-05-24T03:24:43.577Z,99898.53
2023-05-24T03:27:10.690Z,99899.38
2023-05-24T03:29:37.911Z,99905.59
2023-05-24T03:32:05.586Z,99894.00
2023-05-24T03:34:32.715Z,99904.69
2023-05-24T03:36:59.792Z,99905.66
2023-05-24T03:39:26.854Z,99904.72
2023-05-24T03:41:53.892Z,99898.44
2023-05-24T03:44:21.072Z,99899.38
2023-05-24T03:46:48.146Z,99899.38
2023-05-24T03:49:15.316Z,99903.72
2023-05-24T03:51:42.324Z,99905.50
2023-05-24T03:54:09.370Z,99902.88
2023-05-24T03:56:37.855Z,99922.41
2023-05-24T03:59:04.964Z,99916.09
2023-05-24T04:01:34.560Z,99918.34
2023-05-24T04:04:03.629Z,99922.72
2023-05-24T04:06:31.115Z,99924.97
2023-05-24T04:08:59.831Z,99918.47
2023-05-24T04:11:30.178Z,99926.91
2023-05-24T04:14:01.603Z,99926.06
2023-05-24T04:16:29.009Z,99925.28
2023-05-24T04:18:56.769Z,99930.81
2023-05-24T04:21:24.057Z,99936.16
2023-05-24T04:23:51.165Z,99936.97
2023-05-24T04:26:18.465Z,99936.13
2023-05-24T04:28:48.783Z,99946.94
2023-05-24T04:31:16.609Z,99942.44
2023-05-24T04:33:43.737Z,99943.97
2023-05-24T04:36:11.742Z,99945.72
2023-05-24T04:38:41.044Z,99954.19
2023-05-24T04:41:08.233Z,99949.75
2023-05-24T04:43:35.637Z,99945.66
2023-05-24T04:46:02.943Z,99944.50
2023-05-24T04:48:30.460Z,99955.38
2023-05-24T04:50:58.580Z,99948.94
2023-05-24T04:53:25.869Z,99954.28
2023-05-24T04:55:53.216Z,99950.72
2023-05-24T04:58:20.338Z,99953.78
2023-05-24T05:00:47.489Z,99955.50
2023-05-24T05:03:14.690Z,99956.59
2023-05-24T05:05:41.865Z,99960.16
2023-05-24T05:08:09.691Z,99962.44
2023-05-24T05:10:37.302Z,99969.75
2023-05-24T05:13:04.739Z,99966.00
2023-05-24T05:15:32.779Z,99961.22
2023-05-24T05:18:00.384Z,99966.13
2023-05-24T05:20:27.575Z,99964.06
2023-05-24T05:22:54.785Z,99972.75
2023-05-24T05:25:22.141Z,99976.72
2023-05-24T05:27:49.209Z,99971.72
2023-05-24T05:30:16.502Z,99977.31
2023-05-24T05:32:43.672Z,99978.03
2023-05-24T05:35:10.880Z,99976.53
2023-05-24T05:37:38.032Z,99990.78
2023-05-24T05:40:05.717Z,99983.63
2023-05-24T05:42:32.790Z,99988.03
2023-05-24T05:44:59.967Z,99993.19
2023-05-24T05:47:27.128Z,99979.00
2023-05-24T05:49:54.350Z,99990.31
2023-05-24T05:52:21.469Z,99992.47
2023-05-24T05:54:48.525Z,99986.06
2023-05-24T05:57:16.385Z,100000.53
2023-05-24T05:59:43.515Z,99998.78
2023-05-24T06:02:12.872Z,100003.75
2023-05-24T06:04:40.014Z,100010.84
2023-05-24T06:07:07.111Z,100005.38
2023-05-24T06:09:34.191Z,99998.19
2023-05-24T06:12:01.315Z,100005.03
2023-05-24T06:14:28.463Z,100003.88
2023-05-24T06:16:56.834Z,100007.13
2023-05-24T06:19:25.076Z,100000.81
2023-05-24T06:21:52.193Z,99991.91
2023-05-24T06:24:22.835Z,100003.22
2023-05-24T06:26:52.434Z,100005.97
2023-05-24T06:29:21.052Z,100014.22
2023-05-24T06:31:51.699Z,100016.22
2023-05-24T06:34:22.399Z,100027.59
2023-05-24T06:36:51.046Z,100027.56
2023-05-24T06:39:19.004Z,100026.66
2023-05-24T06:41:47.202Z,100029.25
2023-05-24T06:44:14.727Z,100039.56
2023-05-24T06:46:42.010Z,100036.03
2023-05-24T06:49:09.137Z,100039.00
2023-05-24T06:51:38.074Z,100040.81
2023-05-24T06:54:05.211Z,100047.25
2023-05-24T06:56:33.116Z,100047.66
2023-05-24T06:59:00.756Z,100048.63
2023-05-24T07:01:29.345Z,100049.09
2023-05-24T07:03:56.571Z,100047.06
2023-05-24T07:06:23.646Z,100050.78
2023-05-24T07:08:50.816Z,100055.34
2023-05-24T07:11:18.045Z,100045.72
2023-05-24T07:13:45.154Z,100051.53
2023-05-24T07:16:12.179Z,100045.69
2023-05-24T07:18:41.763Z,100050.59
2023-05-24T07:21:09.114Z,100058.59
2023-05-24T07:23:37.108Z,100054.03
2023-05-24T07:26:05.586Z,100063.56
2023-05-24T07:28:32.941Z,100066.38
2023-05-24T07:31:00.485Z,100072.38
2023-05-24T07:33:27.682Z,100073.88
2023-05-24T07:35:54.895Z,100077.00
2023-05-24T07:38:21.999Z,100083.22
2023-05-24T07:40:49.114Z,100084.84
2023-05-24T07:43:16.356Z,100090.84
2023-05-24T07:45:43.612Z,100078.16
2023-05-24T07:48:10.986Z,100086.88
2023-05-24T07:50:38.648Z,100090.91
2023-05-24T07:53:06.374Z,100088.78
2023-05-24T07:55:33.745Z,100091.53
2023-05-24T07:58:00.851Z,100093.03
2023-05-24T08:00:27.897Z,100098.50
2023-05-24T08:02:55.038Z,100097.50
2023-05-24T08:05:22.197Z,100090.75
2023-05-24T08:07:52.160Z,100094.34
2023-05-24T08:10:19.394Z,100091.16
2023-05-24T08:12:46.829Z,100106.06
2023-05-24T08:15:13.899Z,100095.97
2023-05-24T08:17:41.364Z,100106.06
2023-05-24T08:20:10.111Z,100098.31
2023-05-24T08:22:37.876Z,100107.41
2023-05-24T08:25:06.858Z,100102.13
2023-05-24T08:27:34.066Z,100106.25
2023-05-24T08:30:01.850Z,100106.38
2023-05-24T08:32:28.958Z,100110.97
2023-05-24T08:35:06.690Z,100107.91
2023-05-24T08:37:38.125Z,100106.59
2023-05-24T08:40:05.934Z,100110.22
2023-05-24T08:42:33.502Z,100103.03
2023-05-24T08:45:15.282Z,100100.75
2023-05-24T08:47:42.663Z,100117.53
2023-05-24T08:50:11.162Z,100114.34
2023-05-24T08:52:39.833Z,100110.94
2023-05-24T08:55:08.706Z,100119.78
2023-05-24T08:57:39.904Z,100128.34
2023-05-24T09:00:12.844Z,100125.94
2023-05-24T09:02:42.350Z,100136.94
2023-05-24T09:05:16.868Z,100131.66
2023-05-24T09:07:45.637Z,100131.47
2023-05-24T09:10:12.909Z,100127.56
2023-05-24T09:12:45.730Z,100133.25
2023-05-24T09:15:12.951Z,100143.06
2023-05-24T09:17:40.755Z,100127.75
2023-05-24T09:20:10.891Z,100149.00
2023-05-24T09:22:42.097Z,100151.94
2023-05-24T09:25:13.828Z,100138.59
2023-05-24T09:27:41.635Z,100147.34
2023-05-24T09:30:10.882Z,100137.00
2023-05-24T09:32:38.333Z,100150.69
2023-05-24T09:35:10.011Z,100151.13
2023-05-24T09:37:40.855Z,100159.31
2023-05-24T09:40:20.271Z,100156.66
2023-05-24T09:42:51.487Z,100154.50
2023-05-24T09:45:18.769Z,100161.97
2023-05-24T09:47:46.251Z,100155.81
2023-05-24T09:50:15.771Z,100162.84
2023-05-24T09:52:43.570Z,100160.28
2023-05-24T09:55:17.025Z,100156.25
2023-05-24T09:58:12.825Z,100160.88
2023-05-24T10:00:41.643Z,100155.59
2023-05-24T10:03:12.239Z,100153.06
2023-05-24T10:05:44.813Z,100153.34
2023-05-24T10:08:12.710Z,100159.94
2023-05-24T10:10:39.831Z,100164.13
2023-05-24T10:13:07.766Z,100156.75
2023-05-24T10:15:34.976Z,100169.22
2023-05-24T10:18:10.408Z,100165.66
2023-05-24T10:20:38.728Z,100173.91
2023-05-24T10:23:09.994Z,100171.81
2023-05-24T10:25:44.772Z,100173.59
2023-05-24T10:28:15.281Z,100179.56
2023-05-24T10:31:10.705Z,100176.69
2023-05-24T10:33:39.209Z,100170.47
2023-05-24T10:36:09.998Z,100167.66
2023-05-24T10:38:42.057Z,100170.03
2023-05-24T10:41:09.748Z,100178.97
2023-05-24T10:43:37.993Z,100175.03
2023-05-24T10:46:08.887Z,100180.69
2023-05-24T10:48:40.827Z,100177.25
2023-05-24T10:51:34.814Z,100186.53
2023-05-24T10:54:19.744Z,100185.28
2023-05-24T10:56:49.997Z,100188.78
2023-05-24T10:59:45.435Z,100186.41
2023-05-24T11:02:16.797Z,100191.22
2023-05-24T11:04:47.175Z,100193.94
2023-05-24T11:07:15.859Z,100194.03
2023-05-24T11:09:46.823Z,100194.44
2023-05-24T11:12:19.271Z,100200.91
2023-05-24T11:14:52.427Z,100197.03
2023-05-24T11:17:24.023Z,100196.28
2023-05-24T11:19:54.312Z,100190.81
2023-05-24T11:22:24.396Z,100202.88
2023-05-24T11:24:53.316Z,100192.25
2023-05-24T11:27:20.541Z,100192.03
2023-05-24T11:29:48.905Z,100202.34
2023-05-24T11:32:19.273Z,100209.06
2023-05-24T11:34:50.056Z,100193.38
2023-05-24T11:37:18.617Z,100198.72
2023-05-24T11:39:54.138Z,100195.19
2023-05-24T11:42:23.423Z,100194.75
2023-05-24T11:44:50.776Z,100198.19
2023-05-24T11:47:22.101Z,100207.13
2023-05-24T11:49:52.694Z,100199.06
2023-05-24T11:52:20.161Z,100193.94
2023-05-24T11:54:47.511Z,100199.88
2023-05-24T11:57:14.785Z,100199.38
2023-05-24T11:59:42.013Z,100197.41
2023-05-24T12:02:09.310Z,100200.00
2023-05-24T12:04:36.602Z,100200.09
2023-05-24T12:07:03.800Z,100204.38
2023-05-24T12:09:30.883Z,100197.56
2023-05-24T12:11:58.700Z,100199.16
2023-05-24T12:14:33.737Z,100193.91
2023-05-24T12:17:01.373Z,100194.69
2023-05-24T12:19:35.778Z,100185.13
2023-05-24T12:22:07.513Z,100196.38
2023-05-24T12:24:35.466Z,100195.75
2023-05-24T12:27:08.336Z,100198.25
2023-05-24T12:29:45.686Z,100194.75
2023-05-24T12:32:14.335Z,100184.94
2023-05-24T12:34:44.380Z,100185.97
2023-05-24T12:37:13.375Z,100179.63
2023-05-24T12:39:43.586Z,100179.56
2023-05-24T12:42:13.173Z,100184.47
2023-05-24T12:44:40.794Z,100178.94
2023-05-24T12:47:09.196Z,100175.34
2023-05-24T12:49:36.768Z,100180.00
2023-05-24T12:52:04.596Z,100178.41
2023-05-24T12:54:32.271Z,100179.41
2023-05-24T12:57:00.566Z,100178.50
2023-05-24T12:59:28.726Z,100171.78
2023-05-24T13:01:56.250Z,100186.78
2023-05-24T13:04:27.200Z,100180.38
2023-05-24T13:06:54.626Z,100183.13
2023-05-24T13:09:23.563Z,100176.75
2023-05-24T13:11:52.539Z,100180.56
2023-05-24T13:14:20.484Z,100171.63
2023-05-24T13:16:48.428Z,100168.84
2023-05-24T13:19:16.600Z,100168.78
2023-05-24T13:21:44.067Z,100172.47
2023-05-24T13:24:12.545Z,100165.75
2023-05-24T13:26:39.606Z,100161.50
2023-05-24T13:29:32.223Z,100165.41
2023-05-24T13:31:54.259Z,100161.03
2023-05-24T13:34:21.804Z,100164.47
2023-05-24T13:36:48.829Z,100163.28
2023-05-24T13:39:16.734Z,100162.66
2023-05-24T13:41:44.656Z,100172.31
2023-05-24T13:44:13.580Z,100171.41
2023-05-24T13:46:41.553Z,100167.09
2023-05-24T13:49:10.063Z,100163.63
2023-05-24T13:51:38.560Z,100170.06
2023-05-24T13:54:07.519Z,100173.09
2023-05-24T13:56:35.713Z,100176.22
2023-05-24T13:59:04.536Z,100179.44
2023-05-24T14:01:32.912Z,100184.44
2023-05-24T14:04:02.584Z,100179.91
2023-05-24T14:06:29.869Z,100187.53
2023-05-24T14:08:57.219Z,100193.72
2023-05-24T14:11:25.490Z,100207.72
2023-05-24T14:16:25.212Z,100215.06
2023-05-24T14:18:52.501Z,100219.38
2023-05-24T14:21:21.811Z,100232.66
2023-05-24T14:23:49.843Z,100236.47
2023-05-24T14:26:18.580Z,100238.31
2023-05-24T14:28:45.701Z,100241.63
2023-05-24T14:31:12.805Z,100232.16
2023-05-24T14:33:39.995Z,100229.69
2023-05-24T14:36:07.713Z,100234.91
2023-05-24T14:38:34.853Z,100235.66
2023-05-24T14:41:02.194Z,100232.66
2023-05-24T14:43:29.306Z,100237.88
2023-05-24T14:45:56.608Z,100233.81
2023-05-24T14:48:23.754Z,100216.00
2023-05-24T14:50:50.802Z,100220.06
2023-05-24T14:53:17.885Z,100230.22
2023-05-24T14:55:45.347Z,100227.09
2023-05-24T14:58:12.905Z,100225.31
2023-05-24T15:00:41.864Z,100225.09
2023-05-24T15:03:09.419Z,100229.91
2023-05-24T15:05:37.149Z,100222.28
2023-05-24T15:08:05.900Z,100225.31
2023-05-24T15:10:33.398Z,100230.41
2023-05-24T15:13:01.567Z,100232.06
2023-05-24T15:15:29.232Z,100240.22
2023-05-24T15:17:57.722Z,100236.97
2023-05-24T15:20:26.063Z,100231.63
2023-05-24T15:22:53.629Z,100235.47
2023-05-24T15:25:21.049Z,100240.53
2023-05-24T15:27:48.459Z,100251.16
2023-05-24T15:30:17.481Z,100237.16
2023-05-24T15:32:46.570Z,100233.69
2023-05-24T15:35:13.799Z,100231.41
2023-05-24T15:37:42.755Z,100225.31
2023-05-24T15:40:11.210Z,100222.88
2023-05-24T15:42:38.437Z,100240.56
2023-05-24T15:45:06.443Z,100257.19
2023-05-24T15:47:39.517Z,100269.66
2023-05-24T15:50:10.442Z,100271.81
2023-05-24T15:52:37.617Z,100277.53
2023-05-24T15:55:05.827Z,100265.16
2023-05-24T15:57:32.898Z,100263.69
2023-05-24T16:00:01.315Z,100272.97
2023-05-24T16:02:30.288Z,100267.75
2023-05-24T16:04:57.591Z,100280.09
2023-05-24T16:07:24.770Z,100283.69
2023-05-24T16:09:51.863Z,100278.59
2023-05-24T16:12:19.154Z,100283.00
2023-05-24T16:14:46.596Z,100284.72
2023-05-24T16:17:15.052Z,100285.94
2023-05-24T16:19:42.298Z,100297.63
2023-05-24T16:22:09.392Z,100287.84
2023-05-24T16:24:36.444Z,100298.06
2023-05-24T16:27:03.530Z,100308.81
2023-05-24T16:29:30.581Z,100319.13
2023-05-24T16:31:57.698Z,100330.59
2023-05-24T16:34:25.645Z,100331.66
2023-05-24T16:36:52.815Z,100334.31
2023-05-24T16:39:20.019Z,100329.78
2023-05-24T16:41:47.753Z,100330.00
2023-05-24T16:44:18.057Z,100326.34
2023-05-24T16:46:46.650Z,100317.41
2023-05-24T16:49:13.931Z,100321.16
2023-05-24T16:51:41.075Z,100330.78
2023-05-24T16:54:09.249Z,100328.84
2023-05-24T16:56:38.149Z,100323.72
2023-05-24T16:59:05.595Z,100324.72
2023-05-24T17:01:32.886Z,100335.47
2023-05-24T17:04:00.419Z,100333.50
2023-05-24T17:06:27.745Z,100335.78
2023-05-24T17:08:54.817Z,100334.88
2023-05-24T17:11:23.120Z,100323.97
2023-05-24T17:13:51.541Z,100335.47
2023-05-24T17:16:18.938Z,100334.00
2023-05-24T17:18:46.328Z,100348.25
2023-05-24T17:21:13.857Z,100344.59
2023-05-24T17:23:41.458Z,100352.72
2023-05-24T17:26:08.922Z,100343.72
2023-05-24T17:28:36.483Z,100340.31
2023-05-24T17:31:03.777Z,100353.19
2023-05-24T17:33:31.744Z,100360.41
2023-05-24T17:36:02.681Z,100354.19
2023-05-24T17:38:33.029Z,100354.84
2023-05-24T17:41:00.341Z,100352.44
2023-05-24T17:43:32.865Z,100358.91
2023-05-24T17:46:08.589Z,100354.22
2023-05-24T17:48:41.156Z,100362.50
2023-05-24T17:51:10.389Z,100372.31
2023-05-24T17:53:38.468Z,100368.81
2023-05-24T17:56:06.520Z,100389.22
2023-05-24T17:58:36.934Z,100388.25
2023-05-24T18:01:10.086Z,100391.94
2023-05-24T18:03:39.075Z,100390.06
2023-05-24T18:06:07.452Z,100389.25
2023-05-24T18:08:37.964Z,100392.00
2023-05-24T18:11:08.645Z,100398.25
2023-05-24T18:13:42.019Z,100404.41
2023-05-24T18:16:11.409Z,100412.56
2023-05-24T18:18:38.865Z,100420.69
2023-05-24T18:21:06.389Z,100418.91
2023-05-24T18:23:37.569Z,100415.31
2023-05-24T18:26:09.588Z,100425.22
2023-05-24T18:28:38.162Z,100425.25
2023-05-24T18:31:14.585Z,100433.25
2023-05-24T18:33:42.116Z,100437.81
2023-05-24T18:36:09.444Z,100446.75
2023-05-24T18:38:37.258Z,100446.84
2023-05-24T18:41:06.457Z,100448.66
2023-05-24T18:43:33.843Z,100448.66
2023-05-24T18:46:01.324Z,100461.19
2023-05-24T18:48:28.369Z,100449.53
2023-05-24T18:50:55.413Z,100445.16
2023-05-24T18:53:22.457Z,100445.16
2023-05-24T18:55:49.593Z,100455.91
2023-05-24T18:58:16.681Z,100455.88
2023-05-24T19:00:43.815Z,100459.50
2023-05-24T19:03:14.040Z,100464.84
2023-05-24T19:05:43.508Z,100464.00
2023-05-24T19:08:11.463Z,100474.72
2023-05-24T19:10:38.610Z,100469.38
2023-05-24T19:13:06.583Z,100481.88
2023-05-24T19:15:36.695Z,100483.69
2023-05-24T19:18:04.340Z,100484.56
2023-05-24T19:20:31.522Z,100489.06
2023-05-24T19:22:59.807Z,100481.03
2023-05-24T19:25:27.063Z,100477.47
2023-05-24T19:28:00.035Z,100487.28
2023-05-24T19:30:27.883Z,100489.97
2023-05-24T19:32:55.064Z,100490.88
2023-05-24T19:35:22.340Z,100484.63
2023-05-24T19:37:49.493Z,100481.94
2023-05-24T19:40:16.689Z,100501.56
2023-05-24T19:42:43.736Z,100493.47
2023-05-24T19:45:12.103Z,100499.72
2023-05-24T19:47:39.818Z,100491.69
2023-05-24T19:50:08.026Z,100501.50
2023-05-24T19:52:35.069Z,100499.72
2023-05-24T19:55:02.195Z,100508.59
2023-05-24T19:57:29.236Z,100502.38
2023-05-24T19:59:56.377Z,100502.34
2023-05-24T20:02:23.514Z,100509.47
2023-05-24T20:04:50.550Z,100513.03
2023-05-24T20:07:17.605Z,100515.69
2023-05-24T20:09:44.739Z,100508.50
2023-05-24T20:12:12.017Z,100505.84
2023-05-24T20:14:39.104Z,100513.84
2023-05-24T20:17:06.143Z,100515.63
2023-05-24T20:19:33.171Z,100511.19
2023-05-24T20:22:00.351Z,100518.25
2023-05-24T20:24:27.449Z,100515.63
2023-05-24T20:26:54.514Z,100495.91
2023-05-24T20:29:21.630Z,100520.81
2023-05-24T20:31:48.709Z,100514.59
2023-05-24T20:34:15.863Z,100520.81
2023-05-24T20:36:43.910Z,100518.94
2023-05-24T20:39:11.429Z,100523.31
2023-05-24T20:41:38.498Z,100523.38
2023-05-24T20:44:05.761Z,100528.63
2023-05-24T20:46:32.869Z,100523.34
2023-05-24T20:48:59.999Z,100534.06
2023-05-24T20:51:27.099Z,100529.56
2023-05-24T20:53:54.206Z,100530.47
2023-05-24T20:56:23.281Z,100534.91
2023-05-24T20:58:53.079Z,100527.75
2023-05-24T21:01:21.188Z,100524.06
2023-05-24T21:03:48.485Z,100526.78
2023-05-24T21:06:15.647Z,100527.72
2023-05-24T21:08:43.589Z,100530.34
2023-05-24T21:11:11.188Z,100533.94
2023-05-24T21:13:38.486Z,100536.59
2023-05-24T21:16:05.852Z,100541.06
2023-05-24T21:18:33.524Z,100547.31
2023-05-24T21:21:00.832Z,100538.41
2023-05-24T21:23:27.908Z,100546.31
2023-05-24T21:25:54.953Z,100550.56
2023-05-24T21:28:22.049Z,100541.78
2023-05-24T21:30:49.174Z,100545.34
2023-05-24T21:33:16.872Z,100554.31
2023-05-24T21:35:44.408Z,100551.53
2023-05-24T21:38:11.644Z,100562.38
2023-05-24T21:40:38.705Z,100550.81
2023-05-24T21:43:05.850Z,100557.03
2023-05-24T21:45:32.902Z,100563.16
2023-05-24T21:48:00.056Z,100557.88
2023-05-24T21:50:27.169Z,100556.09
2023-05-24T21:52:54.235Z,100567.75
2023-05-24T21:55:21.275Z,100559.63
2023-05-24T21:57:48.457Z,100572.88
2023-05-24T22:00:17.167Z,100573.84
2023-05-24T22:02:44.389Z,100572.03
2023-05-24T22:05:11.649Z,100571.13
2023-05-24T22:07:38.805Z,100565.78
2023-05-24T22:10:07.437Z,100569.34
2023-05-24T22:12:35.190Z,100570.22
2023-05-24T22:15:02.676Z,100567.50
2023-05-24T22:17:32.672Z,100571.88
2023-05-24T22:20:01.448Z,100567.41
2023-05-24T22:22:29.902Z,100565.63
2023-05-24T22:24:57.093Z,100576.22
2023-05-24T22:27:24.161Z,100575.16
2023-05-24T22:29:51.409Z,100573.59
2023-05-24T22:32:18.646Z,100579.81
2023-05-24T22:34:46.042Z,100574.38
2023-05-24T22:37:13.306Z,100577.97
2023-05-24T22:39:40.434Z,100571.75
2023-05-24T22:42:07.597Z,100581.69
2023-05-24T22:44:34.709Z,100581.47
2023-05-24T22:47:02.153Z,100583.19
2023-05-24T22:49:34.079Z,100575.09
2023-05-24T22:52:01.429Z,100580.53
2023-05-24T22:54:28.473Z,100577.63
2023-05-24T22:56:56.809Z,100576.69
2023-05-24T22:59:23.924Z,100579.44
2023-05-24T23:01:51.297Z,100577.59
2023-05-24T23:04:21.275Z,100581.19
2023-05-24T23:06:52.872Z,100580.25
2023-05-24T23:09:34.931Z,100578.34
2023-05-24T23:12:07.917Z,100583.66
2023-05-24T23:14:39.941Z,100578.06
2023-05-24T23:17:14.406Z,100576.31
2023-05-24T23:19:42.838Z,100591.38
2023-05-24T23:22:11.986Z,100586.66
2023-05-24T23:24:42.685Z,100595.66
2023-05-24T23:27:10.182Z,100595.03
2023-05-24T23:29:39.166Z,100591.38
2023-05-24T23:32:07.985Z,100595.03
2023-05-24T23:34:35.217Z,100596.56
2023-05-24T23:37:03.272Z,100607.00
2023-05-24T23:39:30.590Z,100607.84
2023-05-24T23:41:57.678Z,100613.25
2023-05-24T23:44:25.777Z,100609.66
2023-05-24T23:46:53.945Z,100616.84
2023-05-24T23:49:21.099Z,100614.72
2023-05-24T23:51:48.183Z,100624.56
2023-05-24T23:54:15.803Z,100621.09
2023-05-24T23:56:42.911Z,100620.72
2023-05-24T23:59:10.531Z,100625.88
